sensor_id;sensor_type;location;lat;lon;timestamp;P1;durP1;ratioP1;P2;durP2;ratioP2
76593;SDS011;65482;50.240;14.302;2023-01-29T00:00:04;10.45;;;5.63;;
76593;SDS011;65482;50.240;14.302;2023-01-29T00:02:55;8.10;;;5.28;;
76593;SDS011;65482;50.240;14.302;2023-01-29T00:05:39;9.43;;;5.45;;
76593;SDS011;65482;50.240;14.302;2023-01-29T00:08:22;8.48;;;5.70;;
76593;SDS011;65482;50.240;14.302;2023-01-29T00:10:52;9.10;;;5.63;;
76593;SDS011;65482;50.240;14.302;2023-01-29T00:13:57;11.20;;;6.80;;
76593;SDS011;65482;50.240;14.302;2023-01-29T00:16:37;13.73;;;7.03;;
76593;SDS011;65482;50.240;14.302;2023-01-29T00:19:11;12.32;;;6.15;;
76593;SDS011;65482;50.240;14.302;2023-01-29T00:21:56;9.82;;;5.95;;
76593;SDS011;65482;50.240;14.302;2023-01-29T00:24:22;7.25;;;5.30;;
76593;SDS011;65482;50.240;14.302;2023-01-29T00:26:48;7.35;;;5.50;;
76593;SDS011;65482;50.240;14.302;2023-01-29T00:29:21;11.77;;;6.00;;
76593;SDS011;65482;50.240;14.302;2023-01-29T00:31:59;11.73;;;5.93;;
76593;SDS011;65482;50.240;14.302;2023-01-29T00:34:41;10.52;;;5.85;;
76593;SDS011;65482;50.240;14.302;2023-01-29T00:37:34;12.52;;;6.45;;
76593;SDS011;65482;50.240;14.302;2023-01-29T00:40:10;11.73;;;5.97;;
76593;SDS011;65482;50.240;14.302;2023-01-29T00:42:56;10.30;;;5.88;;
76593;SDS011;65482;50.240;14.302;2023-01-29T00:45:50;13.50;;;6.05;;
76593;SDS011;65482;50.240;14.302;2023-01-29T00:48:40;9.73;;;5.63;;
76593;SDS011;65482;50.240;14.302;2023-01-29T00:51:35;12.75;;;6.72;;
76593;SDS011;65482;50.240;14.302;2023-01-29T00:54:10;9.80;;;5.90;;
76593;SDS011;65482;50.240;14.302;2023-01-29T00:57:00;11.20;;;6.35;;
76593;SDS011;65482;50.240;14.302;2023-01-29T00:59:39;12.38;;;6.82;;
76593;SDS011;65482;50.240;14.302;2023-01-29T01:02:13;11.98;;;6.97;;
76593;SDS011;65482;50.240;14.302;2023-01-29T01:05:08;11.25;;;6.55;;
76593;SDS011;65482;50.240;14.302;2023-01-29T01:07:48;12.80;;;6.53;;
76593;SDS011;65482;50.240;14.302;2023-01-29T01:11:04;12.75;;;7.72;;
76593;SDS011;65482;50.240;14.302;2023-01-29T01:13:46;13.43;;;7.32;;
76593;SDS011;65482;50.240;14.302;2023-01-29T01:16:34;12.93;;;7.57;;
76593;SDS011;65482;50.240;14.302;2023-01-29T01:19:14;16.65;;;7.30;;
76593;SDS011;65482;50.240;14.302;2023-01-29T01:22:05;14.15;;;8.35;;
76593;SDS011;65482;50.240;14.302;2023-01-29T01:24:48;13.15;;;7.05;;
76593;SDS011;65482;50.240;14.302;2023-01-29T01:27:30;13.75;;;7.60;;
76593;SDS011;65482;50.240;14.302;2023-01-29T01:30:21;15.90;;;7.47;;
76593;SDS011;65482;50.240;14.302;2023-01-29T01:33:25;16.27;;;7.35;;
76593;SDS011;65482;50.240;14.302;2023-01-29T01:36:08;13.93;;;7.35;;
76593;SDS011;65482;50.240;14.302;2023-01-29T01:38:57;14.80;;;7.28;;
76593;SDS011;65482;50.240;14.302;2023-01-29T01:41:39;12.82;;;7.40;;
76593;SDS011;65482;50.240;14.302;2023-01-29T01:47:41;13.82;;;6.95;;
76593;SDS011;65482;50.240;14.302;2023-01-29T01:53:12;11.80;;;7.13;;
76593;SDS011;65482;50.240;14.302;2023-01-29T01:56:04;14.05;;;7.57;;
76593;SDS011;65482;50.240;14.302;2023-01-29T01:58:45;16.13;;;7.47;;
76593;SDS011;65482;50.240;14.302;2023-01-29T02:01:49;13.93;;;7.28;;
76593;SDS011;65482;50.240;14.302;2023-01-29T02:04:44;13.82;;;6.65;;
76593;SDS011;65482;50.240;14.302;2023-01-29T02:07:32;14.40;;;7.32;;
76593;SDS011;65482;50.240;14.302;2023-01-29T02:10:33;12.00;;;6.47;;
76593;SDS011;65482;50.240;14.302;2023-01-29T02:15:52;12.57;;;6.88;;
76593;SDS011;65482;50.240;14.302;2023-01-29T02:18:21;13.27;;;7.38;;
76593;SDS011;65482;50.240;14.302;2023-01-29T02:21:13;14.93;;;7.43;;
76593;SDS011;65482;50.240;14.302;2023-01-29T02:24:25;12.60;;;6.55;;
76593;SDS011;65482;50.240;14.302;2023-01-29T02:27:54;16.02;;;7.15;;
76593;SDS011;65482;50.240;14.302;2023-01-29T02:36:50;14.05;;;7.72;;
76593;SDS011;65482;50.240;14.302;2023-01-29T02:39:32;14.95;;;7.82;;
76593;SDS011;65482;50.240;14.302;2023-01-29T02:42:10;17.52;;;8.88;;
76593;SDS011;65482;50.240;14.302;2023-01-29T02:44:51;17.42;;;8.32;;
76593;SDS011;65482;50.240;14.302;2023-01-29T02:47:57;18.13;;;8.77;;
76593;SDS011;65482;50.240;14.302;2023-01-29T02:50:47;18.25;;;8.35;;
76593;SDS011;65482;50.240;14.302;2023-01-29T02:53:28;21.65;;;9.52;;
76593;SDS011;65482;50.240;14.302;2023-01-29T02:58:43;17.75;;;8.20;;
76593;SDS011;65482;50.240;14.302;2023-01-29T03:01:28;15.93;;;8.30;;
76593;SDS011;65482;50.240;14.302;2023-01-29T03:04:00;17.50;;;8.63;;
76593;SDS011;65482;50.240;14.302;2023-01-29T03:06:46;14.57;;;8.07;;
76593;SDS011;65482;50.240;14.302;2023-01-29T03:09:25;18.65;;;8.40;;
76593;SDS011;65482;50.240;14.302;2023-01-29T03:12:18;14.32;;;7.78;;
76593;SDS011;65482;50.240;14.302;2023-01-29T03:15:21;15.93;;;8.90;;
76593;SDS011;65482;50.240;14.302;2023-01-29T03:18:06;17.02;;;8.18;;
76593;SDS011;65482;50.240;14.302;2023-01-29T03:21:04;17.52;;;8.88;;
76593;SDS011;65482;50.240;14.302;2023-01-29T03:24:01;16.38;;;8.93;;
76593;SDS011;65482;50.240;14.302;2023-01-29T03:26:51;14.88;;;7.47;;
76593;SDS011;65482;50.240;14.302;2023-01-29T03:29:56;16.33;;;8.45;;
76593;SDS011;65482;50.240;14.302;2023-01-29T03:32:58;16.33;;;8.38;;
76593;SDS011;65482;50.240;14.302;2023-01-29T03:35:54;18.17;;;8.10;;
76593;SDS011;65482;50.240;14.302;2023-01-29T03:38:37;18.65;;;8.48;;
76593;SDS011;65482;50.240;14.302;2023-01-29T03:41:26;19.25;;;8.98;;
76593;SDS011;65482;50.240;14.302;2023-01-29T03:44:22;14.55;;;7.60;;
76593;SDS011;65482;50.240;14.302;2023-01-29T03:47:39;14.95;;;7.38;;
76593;SDS011;65482;50.240;14.302;2023-01-29T03:50:30;13.85;;;7.03;;
76593;SDS011;65482;50.240;14.302;2023-01-29T03:53:22;15.02;;;6.85;;
76593;SDS011;65482;50.240;14.302;2023-01-29T04:01:54;12.60;;;7.00;;
76593;SDS011;65482;50.240;14.302;2023-01-29T04:04:34;12.60;;;7.40;;
76593;SDS011;65482;50.240;14.302;2023-01-29T04:07:15;11.35;;;6.75;;
76593;SDS011;65482;50.240;14.302;2023-01-29T04:10:06;11.35;;;6.75;;
76593;SDS011;65482;50.240;14.302;2023-01-29T04:19:03;11.93;;;5.93;;
76593;SDS011;65482;50.240;14.302;2023-01-29T04:21:56;11.80;;;6.60;;
76593;SDS011;65482;50.240;14.302;2023-01-29T04:24:33;11.52;;;6.50;;
76593;SDS011;65482;50.240;14.302;2023-01-29T04:30:22;10.48;;;6.05;;
76593;SDS011;65482;50.240;14.302;2023-01-29T04:48:59;10.55;;;6.88;;
76593;SDS011;65482;50.240;14.302;2023-01-29T04:52:14;11.50;;;6.07;;
76593;SDS011;65482;50.240;14.302;2023-01-29T04:58:22;10.90;;;6.65;;
76593;SDS011;65482;50.240;14.302;2023-01-29T05:01:07;10.77;;;5.97;;
76593;SDS011;65482;50.240;14.302;2023-01-29T05:03:55;10.20;;;6.65;;
76593;SDS011;65482;50.240;14.302;2023-01-29T05:06:32;14.05;;;6.50;;
76593;SDS011;65482;50.240;14.302;2023-01-29T05:09:04;10.98;;;6.45;;
76593;SDS011;65482;50.240;14.302;2023-01-29T05:11:38;12.40;;;6.60;;
76593;SDS011;65482;50.240;14.302;2023-01-29T05:14:17;12.15;;;6.85;;
76593;SDS011;65482;50.240;14.302;2023-01-29T05:17:14;13.13;;;6.25;;
76593;SDS011;65482;50.240;14.302;2023-01-29T05:20:06;10.27;;;6.45;;
76593;SDS011;65482;50.240;14.302;2023-01-29T05:22:40;13.65;;;7.40;;
76593;SDS011;65482;50.240;14.302;2023-01-29T05:25:25;11.57;;;6.43;;
76593;SDS011;65482;50.240;14.302;2023-01-29T05:28:05;12.80;;;6.63;;
76593;SDS011;65482;50.240;14.302;2023-01-29T05:30:55;10.82;;;6.05;;
76593;SDS011;65482;50.240;14.302;2023-01-29T05:33:35;9.18;;;5.72;;
76593;SDS011;65482;50.240;14.302;2023-01-29T05:36:22;10.48;;;6.25;;
76593;SDS011;65482;50.240;14.302;2023-01-29T05:39:11;10.13;;;6.18;;
76593;SDS011;65482;50.240;14.302;2023-01-29T05:41:48;9.48;;;5.82;;
76593;SDS011;65482;50.240;14.302;2023-01-29T05:44:20;11.50;;;6.65;;
76593;SDS011;65482;50.240;14.302;2023-01-29T05:47:02;11.20;;;6.03;;
76593;SDS011;65482;50.240;14.302;2023-01-29T05:49:37;11.52;;;6.47;;
76593;SDS011;65482;50.240;14.302;2023-01-29T05:52:10;9.18;;;5.68;;
76593;SDS011;65482;50.240;14.302;2023-01-29T05:54:48;12.27;;;6.53;;
76593;SDS011;65482;50.240;14.302;2023-01-29T05:57:39;12.80;;;6.03;;
76593;SDS011;65482;50.240;14.302;2023-01-29T06:00:18;11.02;;;5.72;;
76593;SDS011;65482;50.240;14.302;2023-01-29T06:02:54;9.75;;;5.93;;
76593;SDS011;65482;50.240;14.302;2023-01-29T06:05:32;9.45;;;6.07;;
76593;SDS011;65482;50.240;14.302;2023-01-29T06:11:18;11.13;;;6.00;;
76593;SDS011;65482;50.240;14.302;2023-01-29T06:14:03;9.05;;;6.10;;
76593;SDS011;65482;50.240;14.302;2023-01-29T06:16:36;11.30;;;6.22;;
76593;SDS011;65482;50.240;14.302;2023-01-29T06:19:22;11.48;;;5.95;;
76593;SDS011;65482;50.240;14.302;2023-01-29T06:22:02;10.73;;;6.43;;
76593;SDS011;65482;50.240;14.302;2023-01-29T06:24:38;12.70;;;6.47;;
76593;SDS011;65482;50.240;14.302;2023-01-29T06:29:48;9.90;;;5.72;;
76593;SDS011;65482;50.240;14.302;2023-01-29T06:32:18;12.47;;;6.47;;
76593;SDS011;65482;50.240;14.302;2023-01-29T06:35:08;11.95;;;6.60;;
76593;SDS011;65482;50.240;14.302;2023-01-29T06:38:01;12.40;;;6.30;;
76593;SDS011;65482;50.240;14.302;2023-01-29T06:40:49;11.10;;;6.32;;
76593;SDS011;65482;50.240;14.302;2023-01-29T06:43:32;14.07;;;6.97;;
76593;SDS011;65482;50.240;14.302;2023-01-29T06:45:59;9.43;;;6.30;;
76593;SDS011;65482;50.240;14.302;2023-01-29T06:48:41;10.60;;;6.28;;
76593;SDS011;65482;50.240;14.302;2023-01-29T06:51:21;11.02;;;6.25;;
76593;SDS011;65482;50.240;14.302;2023-01-29T06:53:58;14.32;;;7.57;;
76593;SDS011;65482;50.240;14.302;2023-01-29T06:56:59;12.88;;;7.15;;
76593;SDS011;65482;50.240;14.302;2023-01-29T06:59:45;19.10;;;8.70;;
76593;SDS011;65482;50.240;14.302;2023-01-29T07:02:39;21.58;;;9.52;;
76593;SDS011;65482;50.240;14.302;2023-01-29T07:05:08;21.15;;;9.68;;
76593;SDS011;65482;50.240;14.302;2023-01-29T07:07:50;17.85;;;7.93;;
76593;SDS011;65482;50.240;14.302;2023-01-29T07:10:42;15.57;;;6.47;;
76593;SDS011;65482;50.240;14.302;2023-01-29T07:13:28;13.30;;;6.43;;
76593;SDS011;65482;50.240;14.302;2023-01-29T07:16:19;13.00;;;6.60;;
76593;SDS011;65482;50.240;14.302;2023-01-29T07:19:02;13.27;;;6.95;;
76593;SDS011;65482;50.240;14.302;2023-01-29T07:21:50;11.38;;;6.15;;
76593;SDS011;65482;50.240;14.302;2023-01-29T07:24:50;11.23;;;6.30;;
76593;SDS011;65482;50.240;14.302;2023-01-29T07:27:41;12.23;;;6.18;;
76593;SDS011;65482;50.240;14.302;2023-01-29T07:30:32;13.20;;;6.70;;
76593;SDS011;65482;50.240;14.302;2023-01-29T07:39:17;13.10;;;6.28;;
76593;SDS011;65482;50.240;14.302;2023-01-29T07:42:00;11.48;;;5.80;;
76593;SDS011;65482;50.240;14.302;2023-01-29T07:44:58;9.93;;;5.60;;
76593;SDS011;65482;50.240;14.302;2023-01-29T07:47:37;13.80;;;7.07;;
76593;SDS011;65482;50.240;14.302;2023-01-29T07:50:21;11.30;;;5.95;;
76593;SDS011;65482;50.240;14.302;2023-01-29T07:53:26;10.27;;;5.97;;
76593;SDS011;65482;50.240;14.302;2023-01-29T07:56:02;10.00;;;5.43;;
76593;SDS011;65482;50.240;14.302;2023-01-29T07:58:52;10.00;;;5.28;;
76593;SDS011;65482;50.240;14.302;2023-01-29T08:01:28;11.32;;;6.40;;
76593;SDS011;65482;50.240;14.302;2023-01-29T08:04:00;9.07;;;5.65;;
76593;SDS011;65482;50.240;14.302;2023-01-29T08:06:36;11.77;;;6.35;;
76593;SDS011;65482;50.240;14.302;2023-01-29T08:09:33;10.70;;;6.00;;
76593;SDS011;65482;50.240;14.302;2023-01-29T08:12:11;10.13;;;6.03;;
76593;SDS011;65482;50.240;14.302;2023-01-29T08:15:08;15.02;;;7.53;;
76593;SDS011;65482;50.240;14.302;2023-01-29T08:18:07;13.48;;;7.88;;
76593;SDS011;65482;50.240;14.302;2023-01-29T08:21:01;12.13;;;7.13;;
76593;SDS011;65482;50.240;14.302;2023-01-29T08:23:53;14.15;;;7.70;;
76593;SDS011;65482;50.240;14.302;2023-01-29T08:26:41;11.95;;;6.47;;
76593;SDS011;65482;50.240;14.302;2023-01-29T08:29:15;11.15;;;6.45;;
76593;SDS011;65482;50.240;14.302;2023-01-29T08:31:57;12.98;;;7.18;;
76593;SDS011;65482;50.240;14.302;2023-01-29T08:34:40;11.73;;;7.00;;
76593;SDS011;65482;50.240;14.302;2023-01-29T08:37:06;9.55;;;6.72;;
76593;SDS011;65482;50.240;14.302;2023-01-29T08:39:31;9.90;;;6.60;;
76593;SDS011;65482;50.240;14.302;2023-01-29T08:42:16;9.98;;;7.00;;
76593;SDS011;65482;50.240;14.302;2023-01-29T08:44:53;9.38;;;6.15;;
76593;SDS011;65482;50.240;14.302;2023-01-29T08:47:19;10.63;;;6.80;;
76593;SDS011;65482;50.240;14.302;2023-01-29T08:50:12;10.50;;;6.85;;
76593;SDS011;65482;50.240;14.302;2023-01-29T08:52:56;9.13;;;6.28;;
76593;SDS011;65482;50.240;14.302;2023-01-29T08:55:42;13.35;;;6.38;;
76593;SDS011;65482;50.240;14.302;2023-01-29T08:58:10;10.23;;;6.47;;
76593;SDS011;65482;50.240;14.302;2023-01-29T09:00:36;8.90;;;5.88;;
76593;SDS011;65482;50.240;14.302;2023-01-29T09:03:03;10.50;;;6.78;;
76593;SDS011;65482;50.240;14.302;2023-01-29T09:05:33;9.88;;;6.07;;
76593;SDS011;65482;50.240;14.302;2023-01-29T09:08:00;11.98;;;6.40;;
76593;SDS011;65482;50.240;14.302;2023-01-29T09:10:26;11.02;;;6.68;;
76593;SDS011;65482;50.240;14.302;2023-01-29T09:12:52;10.95;;;6.70;;
76593;SDS011;65482;50.240;14.302;2023-01-29T09:15:20;9.90;;;6.53;;
76593;SDS011;65482;50.240;14.302;2023-01-29T09:18:21;13.93;;;7.57;;
76593;SDS011;65482;50.240;14.302;2023-01-29T09:20:56;11.77;;;6.47;;
76593;SDS011;65482;50.240;14.302;2023-01-29T09:23:23;10.73;;;6.57;;
76593;SDS011;65482;50.240;14.302;2023-01-29T09:26:15;10.80;;;6.20;;
76593;SDS011;65482;50.240;14.302;2023-01-29T09:28:44;9.82;;;5.80;;
76593;SDS011;65482;50.240;14.302;2023-01-29T09:31:39;9.80;;;5.95;;
76593;SDS011;65482;50.240;14.302;2023-01-29T09:34:19;12.15;;;6.35;;
76593;SDS011;65482;50.240;14.302;2023-01-29T09:36:50;17.83;;;6.78;;
76593;SDS011;65482;50.240;14.302;2023-01-29T09:39:27;8.88;;;6.10;;
76593;SDS011;65482;50.240;14.302;2023-01-29T09:42:14;12.02;;;6.50;;
76593;SDS011;65482;50.240;14.302;2023-01-29T09:47:58;13.63;;;6.60;;
76593;SDS011;65482;50.240;14.302;2023-01-29T09:50:51;12.43;;;7.00;;
76593;SDS011;65482;50.240;14.302;2023-01-29T09:57:11;13.82;;;7.57;;
76593;SDS011;65482;50.240;14.302;2023-01-29T10:00:00;14.43;;;6.63;;
76593;SDS011;65482;50.240;14.302;2023-01-29T10:09:41;12.68;;;7.53;;
76593;SDS011;65482;50.240;14.302;2023-01-29T10:13:23;11.32;;;6.88;;
76593;SDS011;65482;50.240;14.302;2023-01-29T10:19:10;11.40;;;6.88;;
76593;SDS011;65482;50.240;14.302;2023-01-29T10:25:16;15.20;;;7.18;;
76593;SDS011;65482;50.240;14.302;2023-01-29T10:27:49;11.70;;;7.55;;
76593;SDS011;65482;50.240;14.302;2023-01-29T10:30:44;10.07;;;6.65;;
76593;SDS011;65482;50.240;14.302;2023-01-29T10:36:40;14.40;;;8.23;;
76593;SDS011;65482;50.240;14.302;2023-01-29T10:39:34;12.70;;;7.55;;
76593;SDS011;65482;50.240;14.302;2023-01-29T10:45:42;10.38;;;6.70;;
76593;SDS011;65482;50.240;14.302;2023-01-29T10:48:47;13.82;;;7.75;;
76593;SDS011;65482;50.240;14.302;2023-01-29T10:51:47;12.75;;;7.57;;
76593;SDS011;65482;50.240;14.302;2023-01-29T10:54:59;12.52;;;7.35;;
76593;SDS011;65482;50.240;14.302;2023-01-29T10:57:41;12.30;;;7.13;;
76593;SDS011;65482;50.240;14.302;2023-01-29T11:00:21;14.93;;;8.05;;
76593;SDS011;65482;50.240;14.302;2023-01-29T11:03:12;16.08;;;7.97;;
76593;SDS011;65482;50.240;14.302;2023-01-29T11:06:11;15.18;;;8.00;;
76593;SDS011;65482;50.240;14.302;2023-01-29T11:12:00;14.98;;;8.18;;
76593;SDS011;65482;50.240;14.302;2023-01-29T11:17:15;11.98;;;7.53;;
76593;SDS011;65482;50.240;14.302;2023-01-29T11:19:49;15.25;;;8.20;;
76593;SDS011;65482;50.240;14.302;2023-01-29T11:22:21;16.48;;;9.05;;
76593;SDS011;65482;50.240;14.302;2023-01-29T11:30:44;12.18;;;7.82;;
76593;SDS011;65482;50.240;14.302;2023-01-29T11:33:31;14.93;;;8.20;;
76593;SDS011;65482;50.240;14.302;2023-01-29T11:35:57;12.25;;;7.55;;
76593;SDS011;65482;50.240;14.302;2023-01-29T11:38:31;16.40;;;8.75;;
76593;SDS011;65482;50.240;14.302;2023-01-29T11:41:12;11.85;;;7.32;;
76593;SDS011;65482;50.240;14.302;2023-01-29T11:43:43;12.88;;;7.60;;
76593;SDS011;65482;50.240;14.302;2023-01-29T11:46:12;13.15;;;8.13;;
76593;SDS011;65482;50.240;14.302;2023-01-29T11:48:42;16.27;;;8.27;;
76593;SDS011;65482;50.240;14.302;2023-01-29T11:54:16;17.67;;;7.88;;
76593;SDS011;65482;50.240;14.302;2023-01-29T11:56:44;14.68;;;7.30;;
76593;SDS011;65482;50.240;14.302;2023-01-29T11:59:24;14.82;;;7.32;;
76593;SDS011;65482;50.240;14.302;2023-01-29T12:02:03;15.85;;;8.02;;
76593;SDS011;65482;50.240;14.302;2023-01-29T12:04:40;20.70;;;8.35;;
76593;SDS011;65482;50.240;14.302;2023-01-29T12:07:10;12.85;;;7.75;;
76593;SDS011;65482;50.240;14.302;2023-01-29T12:09:52;15.55;;;8.50;;
76593;SDS011;65482;50.240;14.302;2023-01-29T12:15:04;16.63;;;10.25;;
76593;SDS011;65482;50.240;14.302;2023-01-29T12:17:42;13.45;;;7.75;;
76593;SDS011;65482;50.240;14.302;2023-01-29T12:20:17;13.63;;;7.90;;
76593;SDS011;65482;50.240;14.302;2023-01-29T12:22:58;14.90;;;8.25;;
76593;SDS011;65482;50.240;14.302;2023-01-29T12:31:15;11.63;;;7.22;;
76593;SDS011;65482;50.240;14.302;2023-01-29T12:36:50;13.25;;;7.05;;
76593;SDS011;65482;50.240;14.302;2023-01-29T12:39:25;11.35;;;7.25;;
76593;SDS011;65482;50.240;14.302;2023-01-29T12:42:07;11.98;;;6.82;;
76593;SDS011;65482;50.240;14.302;2023-01-29T12:44:44;14.13;;;7.18;;
76593;SDS011;65482;50.240;14.302;2023-01-29T12:47:25;9.18;;;6.68;;
76593;SDS011;65482;50.240;14.302;2023-01-29T12:56:09;12.57;;;6.80;;
76593;SDS011;65482;50.240;14.302;2023-01-29T12:58:49;12.18;;;7.35;;
76593;SDS011;65482;50.240;14.302;2023-01-29T13:01:25;13.73;;;7.68;;
76593;SDS011;65482;50.240;14.302;2023-01-29T13:06:53;14.18;;;7.38;;
76593;SDS011;65482;50.240;14.302;2023-01-29T13:09:51;12.27;;;6.82;;
76593;SDS011;65482;50.240;14.302;2023-01-29T13:12:21;11.55;;;6.68;;
76593;SDS011;65482;50.240;14.302;2023-01-29T13:14:53;11.15;;;7.30;;
76593;SDS011;65482;50.240;14.302;2023-01-29T13:20:28;14.20;;;6.72;;
76593;SDS011;65482;50.240;14.302;2023-01-29T13:22:57;13.68;;;7.35;;
76593;SDS011;65482;50.240;14.302;2023-01-29T13:25:30;12.23;;;6.95;;
76593;SDS011;65482;50.240;14.302;2023-01-29T13:27:56;18.63;;;8.35;;
76593;SDS011;65482;50.240;14.302;2023-01-29T13:30:29;15.82;;;7.63;;
76593;SDS011;65482;50.240;14.302;2023-01-29T13:33:00;10.73;;;6.38;;
76593;SDS011;65482;50.240;14.302;2023-01-29T13:36:07;12.38;;;6.65;;
76593;SDS011;65482;50.240;14.302;2023-01-29T13:38:58;19.75;;;7.95;;
76593;SDS011;65482;50.240;14.302;2023-01-29T13:41:50;13.30;;;6.95;;
76593;SDS011;65482;50.240;14.302;2023-01-29T13:44:44;13.52;;;6.55;;
76593;SDS011;65482;50.240;14.302;2023-01-29T13:47:32;10.70;;;6.35;;
76593;SDS011;65482;50.240;14.302;2023-01-29T13:50:17;14.27;;;7.50;;
76593;SDS011;65482;50.240;14.302;2023-01-29T13:53:03;15.45;;;7.07;;
76593;SDS011;65482;50.240;14.302;2023-01-29T13:56:33;14.43;;;6.88;;
76593;SDS011;65482;50.240;14.302;2023-01-29T14:02:22;12.30;;;7.25;;
76593;SDS011;65482;50.240;14.302;2023-01-29T14:07:57;25.30;;;9.50;;
76593;SDS011;65482;50.240;14.302;2023-01-29T14:10:51;25.77;;;10.05;;
76593;SDS011;65482;50.240;14.302;2023-01-29T14:13:59;24.95;;;9.65;;
76593;SDS011;65482;50.240;14.302;2023-01-29T14:16:35;22.45;;;9.07;;
76593;SDS011;65482;50.240;14.302;2023-01-29T14:19:14;19.63;;;8.60;;
76593;SDS011;65482;50.240;14.302;2023-01-29T14:21:47;16.05;;;7.57;;
76593;SDS011;65482;50.240;14.302;2023-01-29T14:24:35;11.80;;;7.53;;
76593;SDS011;65482;50.240;14.302;2023-01-29T14:27:22;13.90;;;7.00;;
76593;SDS011;65482;50.240;14.302;2023-01-29T14:30:00;17.75;;;8.20;;
76593;SDS011;65482;50.240;14.302;2023-01-29T14:39:30;14.45;;;7.72;;
76593;SDS011;65482;50.240;14.302;2023-01-29T14:42:15;20.17;;;8.02;;
76593;SDS011;65482;50.240;14.302;2023-01-29T14:51:22;18.58;;;8.05;;
76593;SDS011;65482;50.240;14.302;2023-01-29T14:57:11;11.35;;;6.90;;
76593;SDS011;65482;50.240;14.302;2023-01-29T15:02:41;10.65;;;6.30;;
76593;SDS011;65482;50.240;14.302;2023-01-29T15:05:21;13.88;;;7.10;;
76593;SDS011;65482;50.240;14.302;2023-01-29T15:08:17;13.80;;;7.57;;
76593;SDS011;65482;50.240;14.302;2023-01-29T15:10:56;12.23;;;7.28;;
76593;SDS011;65482;50.240;14.302;2023-01-29T15:13:52;15.35;;;8.02;;
76593;SDS011;65482;50.240;14.302;2023-01-29T15:19:12;13.90;;;8.13;;
76593;SDS011;65482;50.240;14.302;2023-01-29T15:24:33;17.05;;;8.18;;
76593;SDS011;65482;50.240;14.302;2023-01-29T15:27:00;16.23;;;8.73;;
76593;SDS011;65482;50.240;14.302;2023-01-29T15:30:22;12.50;;;7.80;;
76593;SDS011;65482;50.240;14.302;2023-01-29T15:33:29;13.38;;;8.05;;
76593;SDS011;65482;50.240;14.302;2023-01-29T15:35:58;20.27;;;8.30;;
76593;SDS011;65482;50.240;14.302;2023-01-29T15:38:44;20.77;;;8.82;;
76593;SDS011;65482;50.240;14.302;2023-01-29T15:42:08;24.05;;;9.30;;
76593;SDS011;65482;50.240;14.302;2023-01-29T15:45:04;24.98;;;10.05;;
76593;SDS011;65482;50.240;14.302;2023-01-29T15:47:56;22.95;;;10.23;;
76593;SDS011;65482;50.240;14.302;2023-01-29T15:50:53;33.33;;;12.10;;
76593;SDS011;65482;50.240;14.302;2023-01-29T15:57:17;19.92;;;9.35;;
76593;SDS011;65482;50.240;14.302;2023-01-29T15:59:54;19.10;;;8.95;;
76593;SDS011;65482;50.240;14.302;2023-01-29T16:02:47;18.70;;;9.85;;
76593;SDS011;65482;50.240;14.302;2023-01-29T16:05:43;17.35;;;8.52;;
76593;SDS011;65482;50.240;14.302;2023-01-29T16:08:25;18.65;;;8.88;;
76593;SDS011;65482;50.240;14.302;2023-01-29T16:11:27;21.17;;;10.13;;
76593;SDS011;65482;50.240;14.302;2023-01-29T16:14:20;18.73;;;9.65;;
76593;SDS011;65482;50.240;14.302;2023-01-29T16:16:57;19.48;;;9.55;;
76593;SDS011;65482;50.240;14.302;2023-01-29T16:23:22;19.75;;;9.10;;
76593;SDS011;65482;50.240;14.302;2023-01-29T16:25:52;22.95;;;9.70;;
76593;SDS011;65482;50.240;14.302;2023-01-29T16:28:20;19.17;;;9.88;;
76593;SDS011;65482;50.240;14.302;2023-01-29T16:31:00;19.58;;;10.70;;
76593;SDS011;65482;50.240;14.302;2023-01-29T16:33:45;23.00;;;11.80;;
76593;SDS011;65482;50.240;14.302;2023-01-29T16:36:49;23.67;;;11.95;;
76593;SDS011;65482;50.240;14.302;2023-01-29T16:39:31;26.20;;;12.10;;
76593;SDS011;65482;50.240;14.302;2023-01-29T16:48:31;39.00;;;16.73;;
76593;SDS011;65482;50.240;14.302;2023-01-29T16:51:21;38.13;;;18.08;;
76593;SDS011;65482;50.240;14.302;2023-01-29T16:56:56;35.42;;;17.95;;
76593;SDS011;65482;50.240;14.302;2023-01-29T16:59:35;39.30;;;16.92;;
76593;SDS011;65482;50.240;14.302;2023-01-29T17:02:19;39.25;;;18.02;;
76593;SDS011;65482;50.240;14.302;2023-01-29T17:05:01;41.45;;;17.80;;
76593;SDS011;65482;50.240;14.302;2023-01-29T17:07:31;43.53;;;21.38;;
76593;SDS011;65482;50.240;14.302;2023-01-29T17:10:00;55.53;;;24.85;;
76593;SDS011;65482;50.240;14.302;2023-01-29T17:12:28;68.40;;;29.50;;
76593;SDS011;65482;50.240;14.302;2023-01-29T17:14:59;66.82;;;31.55;;
76593;SDS011;65482;50.240;14.302;2023-01-29T17:17:47;70.78;;;29.80;;
76593;SDS011;65482;50.240;14.302;2023-01-29T17:20:22;43.00;;;21.23;;
76593;SDS011;65482;50.240;14.302;2023-01-29T17:23:11;61.30;;;25.05;;
76593;SDS011;65482;50.240;14.302;2023-01-29T17:26:11;57.53;;;24.73;;
76593;SDS011;65482;50.240;14.302;2023-01-29T17:29:07;55.22;;;23.20;;
76593;SDS011;65482;50.240;14.302;2023-01-29T17:31:56;55.78;;;24.05;;
76593;SDS011;65482;50.240;14.302;2023-01-29T17:37:34;53.50;;;22.45;;
76593;SDS011;65482;50.240;14.302;2023-01-29T17:40:28;47.30;;;20.45;;
76593;SDS011;65482;50.240;14.302;2023-01-29T17:43:36;44.33;;;20.20;;
76593;SDS011;65482;50.240;14.302;2023-01-29T17:46:03;43.60;;;20.25;;
76593;SDS011;65482;50.240;14.302;2023-01-29T17:51:34;44.90;;;19.92;;
76593;SDS011;65482;50.240;14.302;2023-01-29T17:54:06;54.78;;;21.15;;
76593;SDS011;65482;50.240;14.302;2023-01-29T17:56:48;41.78;;;17.85;;
76593;SDS011;65482;50.240;14.302;2023-01-29T17:59:28;42.50;;;17.42;;
76593;SDS011;65482;50.240;14.302;2023-01-29T18:02:11;48.00;;;18.58;;
76593;SDS011;65482;50.240;14.302;2023-01-29T18:05:04;47.88;;;19.05;;
76593;SDS011;65482;50.240;14.302;2023-01-29T18:07:58;47.22;;;18.63;;
76593;SDS011;65482;50.240;14.302;2023-01-29T18:10:38;51.90;;;19.98;;
76593;SDS011;65482;50.240;14.302;2023-01-29T18:13:27;46.38;;;18.65;;
76593;SDS011;65482;50.240;14.302;2023-01-29T18:16:10;36.40;;;17.10;;
76593;SDS011;65482;50.240;14.302;2023-01-29T18:18:48;38.00;;;16.50;;
76593;SDS011;65482;50.240;14.302;2023-01-29T18:24:05;38.10;;;16.88;;
76593;SDS011;65482;50.240;14.302;2023-01-29T18:26:45;37.70;;;16.27;;
76593;SDS011;65482;50.240;14.302;2023-01-29T18:29:27;35.58;;;16.52;;
76593;SDS011;65482;50.240;14.302;2023-01-29T18:32:07;31.83;;;15.38;;
76593;SDS011;65482;50.240;14.302;2023-01-29T18:34:55;31.15;;;15.77;;
76593;SDS011;65482;50.240;14.302;2023-01-29T18:37:44;28.13;;;13.73;;
76593;SDS011;65482;50.240;14.302;2023-01-29T18:40:31;23.83;;;12.52;;
76593;SDS011;65482;50.240;14.302;2023-01-29T18:43:33;25.75;;;12.05;;
76593;SDS011;65482;50.240;14.302;2023-01-29T18:46:24;23.48;;;12.10;;
76593;SDS011;65482;50.240;14.302;2023-01-29T18:49:06;20.80;;;10.85;;
76593;SDS011;65482;50.240;14.302;2023-01-29T18:51:54;23.70;;;10.82;;
76593;SDS011;65482;50.240;14.302;2023-01-29T18:54:40;22.30;;;10.90;;
76593;SDS011;65482;50.240;14.302;2023-01-29T18:57:13;18.13;;;9.80;;
76593;SDS011;65482;50.240;14.302;2023-01-29T19:00:13;19.48;;;10.50;;
76593;SDS011;65482;50.240;14.302;2023-01-29T19:02:56;17.67;;;9.30;;